createdAt,value
2019-03-27T00:01:10.639Z,1.80
2019-03-27T00:03:41.526Z,1.90
2019-03-27T00:06:13.169Z,1.90
2019-03-27T00:08:44.090Z,1.80
2019-03-27T00:11:16.336Z,1.80
2019-03-27T00:13:48.418Z,1.90
2019-03-27T00:16:19.243Z,1.90
2019-03-27T00:18:50.253Z,1.80
2019-03-27T00:21:21.110Z,1.80
2019-03-27T00:23:51.947Z,1.80
2019-03-27T00:26:22.823Z,1.80
2019-03-27T00:28:54.850Z,1.90
2019-03-27T00:31:25.750Z,1.90
2019-03-27T00:33:56.602Z,1.80
2019-03-27T00:36:27.454Z,1.90
2019-03-27T00:38:58.322Z,1.80
2019-03-27T00:41:29.298Z,1.80
2019-03-27T00:44:00.146Z,1.70
2019-03-27T00:46:31.063Z,1.70
2019-03-27T00:49:01.876Z,1.70
2019-03-27T00:51:33.714Z,1.70
2019-03-27T00:54:04.622Z,1.70
2019-03-27T00:56:35.514Z,1.70
2019-03-27T00:59:06.413Z,1.60
2019-03-27T01:01:37.256Z,1.60
2019-03-27T01:04:08.187Z,1.50
2019-03-27T01:06:39.016Z,1.50
2019-03-27T01:09:09.861Z,1.40
2019-03-27T01:11:40.714Z,1.40
2019-03-27T01:14:11.575Z,1.40
2019-03-27T01:16:42.408Z,1.40
2019-03-27T01:19:13.272Z,1.30
2019-03-27T01:21:44.191Z,1.20
2019-03-27T01:24:15.053Z,1.20
2019-03-27T01:26:45.956Z,1.20
2019-03-27T01:29:17.273Z,1.20
2019-03-27T01:31:48.145Z,1.10
2019-03-27T01:34:19.074Z,1.10
2019-03-27T01:36:50.023Z,1.10
2019-03-27T01:39:20.900Z,1.00
2019-03-27T01:41:51.780Z,1.00
2019-03-27T01:44:22.673Z,1.00
2019-03-27T01:46:53.533Z,1.00
2019-03-27T01:49:24.434Z,0.90
2019-03-27T01:51:55.288Z,0.90
2019-03-27T01:54:26.168Z,0.90
2019-03-27T01:56:57.018Z,0.80
2019-03-27T01:59:28.213Z,0.80
2019-03-27T02:01:59.027Z,0.80
2019-03-27T02:04:29.941Z,0.80
2019-03-27T02:07:00.809Z,0.80
2019-03-27T02:09:31.685Z,0.80
2019-03-27T02:12:02.525Z,0.80
2019-03-27T02:14:33.402Z,0.70
2019-03-27T02:17:04.270Z,0.80
2019-03-27T02:19:35.161Z,0.80
2019-03-27T02:22:06.033Z,0.80
2019-03-27T02:24:36.935Z,0.70
2019-03-27T02:27:07.937Z,0.70
2019-03-27T02:29:39.526Z,0.70
2019-03-27T02:32:10.410Z,0.70
2019-03-27T02:34:41.312Z,0.70
2019-03-27T02:37:12.186Z,0.70
2019-03-27T02:39:44.187Z,0.70
2019-03-27T02:42:15.127Z,0.70
2019-03-27T02:44:47.046Z,0.70
2019-03-27T02:47:17.949Z,0.70
2019-03-27T02:49:48.793Z,0.70
2019-03-27T02:52:19.679Z,0.60
2019-03-27T02:54:50.555Z,0.60
2019-03-27T02:57:21.375Z,0.60
2019-03-27T02:59:53.284Z,0.60
2019-03-27T03:02:24.178Z,0.60
2019-03-27T03:04:55.059Z,0.60
2019-03-27T03:07:26.395Z,0.60
2019-03-27T03:09:57.275Z,0.60
2019-03-27T03:12:28.130Z,0.60
2019-03-27T03:14:58.996Z,0.60
2019-03-27T03:17:29.875Z,0.60
2019-03-27T03:20:00.751Z,0.60
2019-03-27T03:22:31.602Z,0.70
2019-03-27T03:25:02.446Z,0.60
2019-03-27T03:27:33.373Z,0.60
2019-03-27T03:30:04.947Z,0.60
2019-03-27T03:32:35.825Z,0.60
2019-03-27T03:35:07.291Z,0.60
2019-03-27T03:37:38.095Z,0.60
2019-03-27T03:40:09.347Z,0.60
2019-03-27T03:42:41.503Z,0.60
2019-03-27T03:45:12.665Z,0.50
2019-03-27T03:47:43.602Z,0.50
2019-03-27T03:50:37.793Z,0.50
2019-03-27T03:53:10.245Z,0.50
2019-03-27T03:55:41.688Z,0.40
2019-03-27T03:58:14.088Z,0.30
2019-03-27T04:00:45.357Z,0.30
2019-03-27T04:03:16.220Z,0.30
2019-03-27T04:05:47.152Z,0.30
2019-03-27T04:08:18.055Z,0.30
2019-03-27T04:10:48.958Z,0.30
2019-03-27T04:13:19.835Z,0.20
2019-03-27T04:15:50.734Z,0.20
2019-03-27T04:18:21.609Z,0.20
2019-03-27T04:20:52.441Z,0.20
2019-03-27T04:23:23.315Z,0.20
2019-03-27T04:26:09.189Z,0.20
2019-03-27T04:28:26.700Z,0.20
2019-03-27T04:30:57.599Z,0.10
2019-03-27T04:33:28.467Z,0.20
2019-03-27T04:38:40.737Z,0.10
2019-03-27T04:41:11.563Z,0.20
2019-03-27T04:43:43.064Z,0.10
2019-03-27T04:46:13.886Z,0.10
2019-03-27T04:48:44.786Z,0.00
2019-03-27T04:51:16.503Z,0.00
2019-03-27T04:53:47.707Z,0.00
2019-03-27T04:56:18.573Z,0.10
2019-03-27T04:58:49.457Z,0.10
2019-03-27T05:01:21.270Z,0.10
2019-03-27T05:03:52.779Z,0.10
2019-03-27T05:06:23.644Z,0.20
2019-03-27T05:08:54.570Z,0.20
2019-03-27T05:11:25.420Z,0.20
2019-03-27T05:13:56.410Z,0.30
2019-03-27T05:16:27.348Z,0.20
2019-03-27T05:18:58.287Z,0.20
2019-03-27T05:21:29.094Z,0.20
2019-03-27T05:24:00.459Z,0.30
2019-03-27T05:26:31.284Z,0.30
2019-03-27T05:29:02.748Z,0.30
2019-03-27T05:31:33.626Z,0.30
2019-03-27T05:34:05.424Z,0.40
2019-03-27T05:36:36.246Z,0.40
2019-03-27T05:39:07.994Z,0.50
2019-03-27T05:41:38.794Z,0.60
2019-03-27T05:44:10.352Z,0.60
2019-03-27T05:46:41.197Z,0.70
2019-03-27T05:49:11.980Z,0.70
2019-03-27T05:51:42.960Z,0.80
2019-03-27T05:54:13.872Z,0.80
2019-03-27T05:56:44.714Z,0.90
2019-03-27T05:59:15.678Z,0.90
2019-03-27T06:01:46.588Z,1.00
2019-03-27T06:04:20.102Z,1.00
2019-03-27T06:06:52.353Z,1.10
2019-03-27T06:09:23.258Z,1.10
2019-03-27T06:11:54.083Z,1.10
2019-03-27T06:14:24.916Z,1.10
2019-03-27T06:16:55.786Z,1.20
2019-03-27T06:19:26.644Z,1.20
2019-03-27T06:21:57.538Z,1.30
2019-03-27T06:24:28.378Z,1.40
2019-03-27T06:26:59.244Z,1.50
2019-03-27T06:29:30.142Z,1.50
2019-03-27T06:32:00.976Z,1.70
2019-03-27T06:34:31.902Z,1.80
2019-03-27T06:37:02.768Z,1.80
2019-03-27T06:39:33.644Z,1.80
2019-03-27T06:42:04.480Z,2.00
2019-03-27T06:44:35.348Z,2.10
2019-03-27T06:47:06.263Z,2.10
2019-03-27T06:49:37.068Z,2.10
2019-03-27T06:52:09.084Z,2.20
2019-03-27T06:54:39.980Z,2.20
2019-03-27T06:57:10.888Z,2.30
2019-03-27T06:59:42.379Z,2.40
2019-03-27T07:02:13.878Z,2.50
2019-03-27T07:04:45.866Z,2.60
2019-03-27T07:07:16.838Z,2.70
2019-03-27T07:09:47.742Z,2.90
2019-03-27T07:12:21.341Z,3.00
2019-03-27T07:14:51.200Z,3.20
2019-03-27T07:17:22.075Z,3.30
2019-03-27T07:19:52.939Z,3.50
2019-03-27T07:22:23.852Z,3.60
2019-03-27T07:24:54.770Z,3.70
2019-03-27T07:27:25.640Z,3.70
2019-03-27T07:29:56.561Z,3.80
2019-03-27T07:32:27.397Z,3.90
2019-03-27T07:34:58.820Z,3.90
2019-03-27T07:37:29.674Z,4.00
2019-03-27T07:40:00.552Z,4.00
2019-03-27T07:42:31.392Z,4.10
2019-03-27T07:45:02.215Z,4.20
2019-03-27T07:47:33.236Z,4.30
2019-03-27T07:50:04.628Z,4.40
2019-03-27T07:52:35.456Z,4.40
2019-03-27T07:55:18.629Z,4.50
2019-03-27T07:57:39.441Z,4.60
2019-03-27T08:00:13.385Z,4.70
2019-03-27T08:02:44.294Z,4.70
2019-03-27T08:05:15.712Z,4.80
2019-03-27T08:07:46.583Z,4.90
2019-03-27T08:10:17.508Z,5.00
2019-03-27T08:12:49.147Z,5.10
2019-03-27T08:15:20.034Z,5.10
2019-03-27T08:17:50.891Z,5.20
2019-03-27T08:20:22.934Z,5.20
2019-03-27T08:22:53.916Z,5.40
2019-03-27T08:25:24.852Z,5.50
2019-03-27T08:27:55.620Z,5.60
2019-03-27T08:30:26.628Z,5.70
2019-03-27T08:32:59.547Z,5.80
2019-03-27T08:35:31.382Z,6.00
2019-03-27T08:38:02.230Z,6.90
2019-03-27T08:40:33.137Z,8.90
2019-03-27T08:43:04.016Z,10.80
2019-03-27T08:45:34.884Z,12.50
2019-03-27T08:48:05.895Z,14.50
2019-03-27T08:50:37.858Z,16.30
2019-03-27T08:53:08.760Z,18.00
2019-03-27T08:55:39.613Z,19.40
2019-03-27T08:58:10.621Z,20.50
2019-03-27T09:00:50.828Z,21.60
2019-03-27T09:03:21.707Z,22.70
2019-03-27T09:05:54.973Z,23.70
2019-03-27T09:08:25.865Z,24.70
2019-03-27T09:10:56.728Z,25.50
2019-03-27T09:13:27.672Z,26.30
2019-03-27T09:15:58.552Z,26.60
2019-03-27T09:18:29.824Z,27.10
2019-03-27T09:21:00.783Z,27.50
2019-03-27T09:23:31.568Z,27.50
2019-03-27T09:26:02.546Z,27.50
2019-03-27T09:28:33.414Z,27.30
2019-03-27T09:31:04.472Z,27.00
2019-03-27T09:33:35.398Z,26.70
2019-03-27T09:36:07.604Z,26.30
2019-03-27T09:38:38.551Z,25.90
2019-03-27T09:41:09.499Z,25.50
2019-03-27T09:43:40.962Z,25.20
2019-03-27T09:46:12.750Z,24.80
2019-03-27T09:48:43.659Z,24.90
2019-03-27T09:51:15.238Z,25.10
2019-03-27T09:53:46.126Z,25.40
2019-03-27T09:56:19.384Z,25.60
2019-03-27T09:58:49.849Z,26.00
2019-03-27T10:01:21.568Z,26.60
2019-03-27T10:03:52.486Z,26.40
2019-03-27T10:06:42.120Z,25.70
2019-03-27T10:09:13.372Z,25.90
2019-03-27T10:11:44.261Z,26.30
2019-03-27T10:14:15.157Z,26.70
2019-03-27T10:16:46.063Z,26.80
2019-03-27T10:19:16.970Z,27.10
2019-03-27T10:21:47.866Z,27.50
2019-03-27T10:24:18.778Z,27.70
2019-03-27T10:26:49.661Z,27.90
2019-03-27T10:29:20.544Z,27.30
2019-03-27T10:31:51.483Z,27.10
2019-03-27T10:34:22.383Z,27.10
2019-03-27T10:36:54.560Z,26.90
2019-03-27T10:39:25.427Z,26.70
2019-03-27T10:41:56.614Z,26.50
2019-03-27T10:44:27.504Z,26.20
2019-03-27T10:46:58.361Z,25.40
2019-03-27T10:49:29.240Z,24.60
2019-03-27T10:52:00.216Z,24.50
2019-03-27T10:54:31.088Z,24.60
2019-03-27T10:57:03.552Z,24.60
2019-03-27T10:59:34.468Z,24.50
2019-03-27T11:02:05.344Z,24.30
2019-03-27T11:04:36.212Z,24.10
2019-03-27T11:07:07.102Z,23.90
2019-03-27T11:09:39.658Z,23.60
2019-03-27T11:12:10.481Z,23.30
2019-03-27T11:14:41.390Z,23.00
2019-03-27T11:17:12.222Z,22.50
2019-03-27T11:19:43.105Z,22.20
2019-03-27T11:22:13.988Z,21.80
2019-03-27T11:24:44.868Z,21.50
2019-03-27T11:27:15.738Z,21.10
2019-03-27T11:29:47.652Z,20.70
2019-03-27T11:32:18.547Z,20.40
2019-03-27T11:34:49.410Z,20.20
2019-03-27T11:37:20.379Z,19.90
2019-03-27T11:39:51.240Z,19.60
2019-03-27T11:42:22.163Z,19.20
2019-03-27T11:44:53.964Z,18.70
2019-03-27T11:47:24.901Z,18.40
2019-03-27T11:49:55.698Z,18.20
2019-03-27T11:52:29.540Z,17.70
2019-03-27T11:54:59.434Z,17.20
2019-03-27T11:57:30.335Z,16.80
2019-03-27T12:00:01.098Z,16.40
2019-03-27T12:02:32.043Z,16.20
2019-03-27T12:05:02.940Z,15.90
2019-03-27T12:07:33.780Z,15.80
2019-03-27T12:10:05.457Z,15.60
2019-03-27T12:12:37.979Z,15.60
2019-03-27T12:15:09.621Z,15.80
2019-03-27T12:17:40.574Z,16.10
2019-03-27T12:20:12.124Z,16.40
2019-03-27T12:22:56.925Z,16.60
2019-03-27T12:25:16.048Z,16.80
2019-03-27T12:27:48.004Z,16.80
2019-03-27T12:30:18.988Z,16.90
2019-03-27T12:32:49.875Z,17.00
2019-03-27T12:35:20.830Z,16.90
2019-03-27T12:37:53.019Z,16.90
2019-03-27T12:40:23.918Z,16.70
2019-03-27T12:42:54.778Z,16.60
2019-03-27T12:45:25.652Z,16.50
2019-03-27T12:47:56.542Z,16.30
2019-03-27T12:50:27.388Z,16.20
2019-03-27T12:52:58.336Z,16.10
2019-03-27T12:55:29.120Z,15.90
2019-03-27T12:58:00.036Z,16.00
2019-03-27T13:00:32.550Z,16.00
2019-03-27T13:03:03.342Z,15.90
2019-03-27T13:05:34.212Z,15.80
2019-03-27T13:08:05.556Z,15.70
2019-03-27T13:10:36.445Z,15.50
2019-03-27T13:13:07.354Z,15.40
2019-03-27T13:15:38.216Z,15.30
2019-03-27T13:18:09.087Z,15.20
2019-03-27T13:20:40.005Z,15.10
2019-03-27T13:23:10.877Z,15.10
2019-03-27T13:25:41.807Z,15.10
2019-03-27T13:28:13.180Z,15.00
2019-03-27T13:30:44.036Z,14.90
2019-03-27T13:33:14.929Z,14.80
2019-03-27T13:35:45.820Z,14.70
2019-03-27T13:38:17.596Z,14.60
2019-03-27T13:40:48.444Z,14.50
2019-03-27T13:43:19.295Z,14.40
2019-03-27T13:45:50.244Z,14.30
2019-03-27T13:48:21.234Z,14.20
2019-03-27T13:50:52.121Z,14.10
2019-03-27T13:53:23.034Z,14.00
2019-03-27T13:55:53.905Z,13.90
2019-03-27T13:58:24.776Z,13.70
2019-03-27T14:00:55.657Z,13.70
2019-03-27T14:03:26.511Z,13.60
2019-03-27T14:05:57.420Z,13.50
2019-03-27T14:08:29.270Z,13.40
2019-03-27T14:11:00.158Z,13.40
2019-03-27T14:13:31.000Z,13.30
2019-03-27T14:16:01.921Z,13.20
2019-03-27T14:18:32.750Z,13.20
2019-03-27T14:21:03.602Z,13.20
2019-03-27T14:23:34.465Z,13.20
2019-03-27T14:26:06.302Z,13.10
2019-03-27T14:28:37.182Z,13.00
2019-03-27T14:31:08.181Z,12.90
2019-03-27T14:33:39.052Z,12.70
2019-03-27T14:36:09.988Z,12.60
2019-03-27T14:38:41.108Z,12.60
2019-03-27T14:41:14.514Z,12.50
2019-03-27T14:43:45.565Z,12.40
2019-03-27T14:46:17.595Z,12.20
2019-03-27T14:48:49.054Z,12.20
2019-03-27T14:51:19.968Z,12.20
2019-03-27T14:53:50.884Z,12.10
2019-03-27T14:56:22.357Z,12.10
2019-03-27T14:58:53.161Z,12.10
2019-03-27T15:01:23.999Z,12.00
2019-03-27T15:03:54.895Z,11.90
2019-03-27T15:06:25.778Z,11.80
2019-03-27T15:08:56.682Z,11.80
2019-03-27T15:11:27.552Z,11.80
2019-03-27T15:13:58.453Z,11.80
2019-03-27T15:16:29.384Z,11.80
2019-03-27T15:19:00.321Z,11.90
2019-03-27T15:21:31.195Z,11.80
2019-03-27T15:24:02.085Z,11.80
2019-03-27T15:26:32.937Z,11.80
2019-03-27T15:29:03.872Z,11.70
2019-03-27T15:31:35.567Z,11.60
2019-03-27T15:34:06.468Z,11.60
2019-03-27T15:36:37.382Z,11.60
2019-03-27T15:39:09.325Z,11.50
2019-03-27T15:41:40.290Z,11.40
2019-03-27T15:44:11.158Z,11.40
2019-03-27T15:46:42.026Z,11.30
2019-03-27T15:49:12.900Z,11.20
2019-03-27T15:51:43.798Z,11.20
2019-03-27T15:54:14.694Z,11.10
2019-03-27T15:56:45.572Z,11.10
2019-03-27T15:59:16.471Z,11.20
2019-03-27T16:01:47.316Z,11.20
2019-03-27T16:04:18.254Z,11.10
2019-03-27T16:06:49.118Z,11.10
2019-03-27T16:09:21.168Z,11.10
2019-03-27T16:11:52.220Z,11.10
2019-03-27T16:14:23.103Z,11.00
2019-03-27T16:17:12.006Z,10.90
2019-03-27T16:19:26.492Z,10.80
2019-03-27T16:21:57.334Z,10.80
2019-03-27T16:24:28.236Z,10.80
2019-03-27T16:27:04.789Z,10.80
2019-03-27T16:29:31.863Z,10.70
2019-03-27T16:32:02.734Z,10.70
2019-03-27T16:34:33.614Z,10.60
2019-03-27T16:37:04.520Z,10.60
2019-03-27T16:39:36.588Z,10.50
2019-03-27T16:42:07.462Z,10.50
2019-03-27T16:44:38.326Z,10.40
2019-03-27T16:47:09.258Z,10.40
2019-03-27T16:49:40.113Z,10.50
2019-03-27T16:52:11.028Z,10.40
2019-03-27T16:54:41.956Z,10.30
2019-03-27T16:57:12.787Z,10.30
2019-03-27T16:59:46.464Z,10.30
2019-03-27T17:02:17.421Z,10.20
2019-03-27T17:04:48.701Z,10.20
2019-03-27T17:07:19.604Z,10.20
2019-03-27T17:09:50.795Z,10.20
2019-03-27T17:12:21.700Z,10.20
2019-03-27T17:14:52.530Z,10.10
2019-03-27T17:17:23.402Z,10.10
2019-03-27T17:19:54.230Z,10.00
2019-03-27T17:22:25.223Z,10.00
2019-03-27T17:24:56.261Z,10.00
2019-03-27T17:27:27.250Z,9.90
2019-03-27T17:29:58.038Z,9.90
2019-03-27T17:32:30.060Z,9.80
2019-03-27T17:35:01.001Z,9.80
2019-03-27T17:37:31.916Z,9.80
2019-03-27T17:40:05.052Z,9.80
2019-03-27T17:42:36.003Z,9.80
2019-03-27T17:45:07.600Z,9.80
2019-03-27T17:47:39.020Z,9.80
2019-03-27T17:50:10.768Z,9.70
2019-03-27T17:52:41.620Z,9.70
2019-03-27T17:55:12.623Z,9.70
2019-03-27T17:57:43.494Z,9.70
2019-03-27T18:00:18.117Z,9.70
2019-03-27T18:02:48.989Z,9.60
2019-03-27T18:05:19.859Z,9.60
2019-03-27T18:07:50.732Z,9.60
2019-03-27T18:10:22.864Z,9.50
2019-03-27T18:12:53.812Z,9.50
2019-03-27T18:15:24.664Z,9.50
2019-03-27T18:17:55.536Z,9.50
2019-03-27T18:20:26.402Z,9.50
2019-03-27T18:22:57.479Z,9.50
2019-03-27T18:25:28.416Z,9.50
2019-03-27T18:27:59.307Z,9.40
2019-03-27T18:30:30.704Z,9.50
2019-03-27T18:33:02.085Z,9.50
2019-03-27T18:35:32.967Z,9.40
2019-03-27T18:38:03.776Z,9.40
2019-03-27T18:40:36.109Z,9.50
2019-03-27T18:43:07.021Z,9.40
2019-03-27T18:45:37.918Z,9.40
2019-03-27T18:48:08.774Z,9.40
2019-03-27T18:50:40.660Z,9.40
2019-03-27T18:53:11.560Z,9.30
2019-03-27T18:55:42.595Z,9.30
2019-03-27T18:58:13.457Z,9.30
2019-03-27T19:00:44.446Z,9.20
2019-03-27T19:03:15.317Z,9.30
2019-03-27T19:05:46.224Z,9.30
2019-03-27T19:08:17.104Z,9.30
2019-03-27T19:10:58.463Z,9.30
2019-03-27T19:13:39.996Z,9.30
2019-03-27T19:16:10.908Z,9.30
2019-03-27T19:18:41.837Z,9.30
2019-03-27T19:21:13.543Z,9.30
2019-03-27T19:23:44.435Z,9.20
2019-03-27T19:26:15.470Z,9.20
2019-03-27T19:28:47.538Z,9.30
2019-03-27T19:31:18.486Z,9.20
2019-03-27T19:33:49.518Z,9.20
2019-03-27T19:36:20.430Z,9.20
2019-03-27T19:38:51.304Z,9.20
2019-03-27T19:41:22.736Z,9.20
2019-03-27T19:43:54.722Z,9.10
2019-03-27T19:46:25.616Z,9.10
2019-03-27T19:48:56.526Z,9.10
2019-03-27T19:51:27.445Z,9.00
2019-03-27T19:53:58.376Z,9.00
2019-03-27T19:56:29.268Z,9.10
2019-03-27T19:59:00.167Z,9.10
2019-03-27T20:01:31.156Z,9.10
2019-03-27T20:04:02.208Z,9.10
2019-03-27T20:06:33.061Z,9.10
2019-03-27T20:09:05.106Z,9.10
2019-03-27T20:11:37.328Z,9.00
2019-03-27T20:14:08.388Z,9.10
2019-03-27T20:16:39.272Z,9.00
2019-03-27T20:19:10.126Z,9.00
2019-03-27T20:21:41.035Z,9.00
2019-03-27T20:24:11.905Z,9.00
2019-03-27T20:26:43.922Z,9.00
2019-03-27T20:29:14.904Z,9.00
2019-03-27T20:31:48.592Z,9.00
2019-03-27T20:34:19.574Z,8.90
2019-03-27T20:36:50.472Z,8.90
2019-03-27T20:39:24.330Z,8.90
2019-03-27T20:41:55.406Z,8.90
2019-03-27T20:44:26.393Z,8.90
2019-03-27T20:46:57.298Z,8.90
2019-03-27T20:49:28.178Z,8.90
2019-03-27T20:51:58.966Z,8.90
2019-03-27T20:54:29.872Z,8.90
2019-03-27T20:57:00.735Z,8.90
2019-03-27T20:59:31.642Z,8.90
2019-03-27T21:02:02.612Z,8.90
2019-03-27T21:04:33.498Z,8.90
2019-03-27T21:07:04.391Z,8.80
2019-03-27T21:09:35.317Z,8.80
2019-03-27T21:12:08.358Z,8.90
2019-03-27T21:14:39.305Z,8.80
2019-03-27T21:17:10.222Z,8.80
2019-03-27T21:19:41.184Z,8.80
2019-03-27T21:22:11.994Z,8.80
2019-03-27T21:24:42.862Z,8.80
2019-03-27T21:27:16.767Z,8.80
2019-03-27T21:29:46.290Z,8.80
2019-03-27T21:32:18.243Z,8.80
2019-03-27T21:34:49.120Z,8.80
2019-03-27T21:37:20.014Z,8.70
2019-03-27T21:39:50.920Z,8.70
2019-03-27T21:42:22.352Z,8.70
2019-03-27T21:44:53.212Z,8.70
2019-03-27T21:47:24.057Z,8.70
2019-03-27T21:49:54.932Z,8.70
2019-03-27T21:52:25.825Z,8.70
2019-03-27T21:54:56.822Z,8.70
2019-03-27T21:57:27.693Z,8.70
2019-03-27T21:59:58.723Z,8.70
2019-03-27T22:02:30.710Z,8.80
2019-03-27T22:05:01.620Z,8.80
2019-03-27T22:07:32.484Z,8.80
2019-03-27T22:10:03.485Z,8.80
2019-03-27T22:12:38.077Z,8.80
2019-03-27T22:15:08.772Z,8.70
2019-03-27T22:17:39.752Z,8.70
2019-03-27T22:20:13.458Z,8.70
2019-03-27T22:22:44.352Z,8.70
2019-03-27T22:25:15.264Z,8.70
2019-03-27T22:27:46.115Z,8.70
2019-03-27T22:30:17.046Z,8.70
2019-03-27T22:32:47.922Z,8.70
2019-03-27T22:35:18.818Z,8.80
2019-03-27T22:37:50.085Z,8.70
2019-03-27T22:40:20.985Z,8.70
2019-03-27T22:42:52.484Z,8.70
2019-03-27T22:45:23.395Z,8.70
2019-03-27T22:47:54.291Z,8.60
2019-03-27T22:50:25.177Z,8.70
2019-03-27T22:52:56.075Z,8.70
2019-03-27T22:55:26.962Z,8.70
2019-03-27T22:57:57.848Z,8.70
2019-03-27T23:00:42.054Z,8.70
2019-03-27T23:03:18.447Z,8.70
2019-03-27T23:05:45.938Z,8.70
2019-03-27T23:08:16.910Z,8.70
2019-03-27T23:10:47.746Z,8.70
2019-03-27T23:13:20.704Z,8.60
2019-03-27T23:15:51.609Z,8.60
2019-03-27T23:18:22.553Z,8.60
2019-03-27T23:20:53.474Z,8.60
2019-03-27T23:23:24.397Z,8.60
2019-03-27T23:26:02.864Z,8.60
2019-03-27T23:28:27.868Z,8.60
2019-03-27T23:30:58.816Z,8.60
2019-03-27T23:33:31.986Z,8.60
2019-03-27T23:36:02.904Z,8.70
2019-03-27T23:38:33.761Z,8.60
2019-03-27T23:41:04.722Z,8.60
2019-03-27T23:43:35.621Z,8.60
2019-03-27T23:46:06.464Z,8.60
2019-03-27T23:48:37.347Z,8.60
2019-03-27T23:51:08.312Z,8.60
2019-03-27T23:53:39.162Z,8.60
2019-03-27T23:56:16.597Z,8.60
2019-03-27T23:58:42.592Z,8.60
